createdAt,value
2023-10-30T00:00:36.313Z,4.80
2023-10-30T00:03:24.328Z,5.60
2023-10-30T00:05:52.009Z,5.30
2023-10-30T00:08:20.572Z,5.60
2023-10-30T00:10:48.409Z,5.10
2023-10-30T00:13:16.257Z,6.00
2023-10-30T00:15:43.990Z,6.00
2023-10-30T00:18:12.221Z,4.70
2023-10-30T00:20:39.885Z,5.20
2023-10-30T00:23:07.619Z,5.20
2023-10-30T00:25:35.401Z,6.10
2023-10-30T00:28:03.355Z,5.60
2023-10-30T00:30:31.405Z,6.10
2023-10-30T00:32:59.288Z,5.00
2023-10-30T00:35:27.311Z,4.80
2023-10-30T00:37:55.042Z,5.20
2023-10-30T00:40:22.694Z,4.90
2023-10-30T00:42:50.387Z,5.40
2023-10-30T00:45:18.380Z,4.70
2023-10-30T00:47:46.095Z,5.40
2023-10-30T00:50:14.270Z,5.00
2023-10-30T00:52:42.620Z,4.60
2023-10-30T00:55:10.634Z,3.70
2023-10-30T00:57:38.315Z,3.90
2023-10-30T01:00:07.144Z,3.90
2023-10-30T01:02:35.084Z,3.90
2023-10-30T01:05:04.257Z,3.70
2023-10-30T01:07:32.114Z,3.50
2023-10-30T01:09:59.867Z,4.30
2023-10-30T01:12:27.776Z,3.90
2023-10-30T01:14:55.623Z,3.80
2023-10-30T01:17:23.910Z,4.40
2023-10-30T01:19:51.523Z,4.40
2023-10-30T01:22:19.312Z,5.30
2023-10-30T01:24:46.947Z,3.70
2023-10-30T01:27:14.629Z,3.70
2023-10-30T01:29:42.499Z,3.40
2023-10-30T01:32:10.671Z,3.50
2023-10-30T01:34:38.416Z,4.20
2023-10-30T01:37:06.275Z,4.20
2023-10-30T01:39:34.184Z,4.80
2023-10-30T01:42:02.082Z,3.90
2023-10-30T01:44:29.979Z,3.90
2023-10-30T01:46:57.898Z,3.40
2023-10-30T01:49:25.520Z,3.50
2023-10-30T01:51:53.154Z,4.10
2023-10-30T01:54:20.936Z,4.50
2023-10-30T01:56:49.152Z,4.50
2023-10-30T01:59:17.325Z,4.30
2023-10-30T02:01:44.983Z,4.40
2023-10-30T02:04:13.572Z,3.80
2023-10-30T02:06:41.442Z,3.50
2023-10-30T02:09:09.272Z,3.80
2023-10-30T02:11:37.593Z,4.00
2023-10-30T02:14:05.463Z,4.00
2023-10-30T02:16:33.269Z,4.10
2023-10-30T02:19:01.086Z,4.30
2023-10-30T02:21:28.916Z,4.10
2023-10-30T02:24:06.230Z,4.10
2023-10-30T02:26:33.964Z,3.40
2023-10-30T02:29:03.903Z,3.60
2023-10-30T02:31:33.818Z,3.60
2023-10-30T02:34:01.746Z,3.80
2023-10-30T02:36:30.589Z,3.60
2023-10-30T02:38:58.487Z,3.40
2023-10-30T02:41:30.462Z,3.40
2023-10-30T02:43:59.307Z,3.40
2023-10-30T02:46:28.281Z,3.20
2023-10-30T02:48:56.630Z,2.70
2023-10-30T02:51:24.552Z,2.40
2023-10-30T02:53:52.276Z,2.50
2023-10-30T02:56:20.256Z,2.30
2023-10-30T02:58:48.265Z,2.50
2023-10-30T03:01:16.011Z,2.50
2023-10-30T03:03:44.271Z,2.30
2023-10-30T03:06:12.173Z,2.60
2023-10-30T03:08:39.973Z,3.00
2023-10-30T03:11:08.664Z,3.30
2023-10-30T03:13:36.611Z,3.30
2023-10-30T03:16:05.046Z,3.50
2023-10-30T03:18:32.759Z,4.30
2023-10-30T03:21:01.181Z,2.20
2023-10-30T03:23:29.307Z,2.80
2023-10-30T03:25:57.222Z,2.70
2023-10-30T03:28:24.917Z,2.50
2023-10-30T03:30:52.754Z,3.20
2023-10-30T03:33:21.905Z,2.80
2023-10-30T03:35:50.096Z,3.40
2023-10-30T03:38:17.888Z,3.30
2023-10-30T03:40:45.577Z,3.30
2023-10-30T03:43:16.726Z,2.90
2023-10-30T03:45:45.443Z,3.20
2023-10-30T03:48:13.272Z,2.60
2023-10-30T03:50:41.603Z,3.00
2023-10-30T03:53:09.164Z,3.00
2023-10-30T03:55:36.984Z,2.70
2023-10-30T03:58:06.048Z,2.90
2023-10-30T04:00:33.957Z,3.40
2023-10-30T04:03:01.678Z,2.50
2023-10-30T04:05:30.426Z,2.00
2023-10-30T04:07:58.120Z,2.40
2023-10-30T04:10:26.001Z,2.50
2023-10-30T04:12:54.049Z,2.30
2023-10-30T04:15:22.053Z,2.50
2023-10-30T04:17:50.896Z,2.60
2023-10-30T04:20:19.082Z,2.60
2023-10-30T04:22:50.695Z,2.80
2023-10-30T04:25:19.113Z,2.50
2023-10-30T04:27:46.820Z,3.10
2023-10-30T04:30:15.113Z,2.80
2023-10-30T04:32:43.205Z,2.40
2023-10-30T04:35:10.970Z,2.20
2023-10-30T04:37:39.248Z,2.20
2023-10-30T04:40:08.165Z,2.10
2023-10-30T04:42:35.812Z,2.50
2023-10-30T04:45:03.831Z,2.10
2023-10-30T04:47:31.438Z,2.30
2023-10-30T04:49:59.188Z,2.70
2023-10-30T04:52:27.380Z,2.20
2023-10-30T04:54:55.330Z,2.50
2023-10-30T04:57:23.038Z,2.20
2023-10-30T04:59:51.292Z,2.40
2023-10-30T05:02:19.583Z,2.40
2023-10-30T05:04:47.149Z,1.70
2023-10-30T05:07:14.775Z,2.30
2023-10-30T05:09:42.650Z,2.20
2023-10-30T05:12:10.376Z,2.90
2023-10-30T05:14:38.135Z,2.60
2023-10-30T05:17:05.793Z,2.40
2023-10-30T05:19:33.694Z,2.30
2023-10-30T05:22:01.772Z,2.40
2023-10-30T05:24:29.572Z,1.90
2023-10-30T05:26:57.843Z,2.10
2023-10-30T05:29:25.902Z,2.30
2023-10-30T05:31:53.576Z,1.60
2023-10-30T05:34:21.229Z,2.00
2023-10-30T05:36:49.058Z,2.30
2023-10-30T05:39:17.139Z,2.00
2023-10-30T05:41:44.823Z,1.70
2023-10-30T05:44:12.619Z,2.30
2023-10-30T05:46:40.754Z,2.50
2023-10-30T05:49:08.982Z,2.00
2023-10-30T05:51:37.064Z,2.50
2023-10-30T05:54:05.117Z,2.60
2023-10-30T05:56:33.182Z,2.60
2023-10-30T05:59:01.291Z,2.50
2023-10-30T06:01:29.268Z,2.50
2023-10-30T06:03:57.566Z,2.30
2023-10-30T06:06:25.470Z,2.60
2023-10-30T06:08:53.096Z,2.60
2023-10-30T06:11:21.249Z,2.30
2023-10-30T06:13:49.374Z,2.40
2023-10-30T06:16:22.036Z,2.60
2023-10-30T06:18:49.816Z,2.50
2023-10-30T06:21:19.201Z,2.60
2023-10-30T06:23:47.029Z,2.40
2023-10-30T06:26:15.072Z,2.20
2023-10-30T06:28:43.556Z,2.30
2023-10-30T06:31:19.945Z,2.00
2023-10-30T06:33:48.086Z,2.10
2023-10-30T06:36:16.785Z,2.10
2023-10-30T06:38:44.546Z,2.50
2023-10-30T06:41:12.357Z,2.10
2023-10-30T06:43:40.811Z,2.30
2023-10-30T06:46:09.539Z,2.30
2023-10-30T06:48:37.288Z,1.80
2023-10-30T06:51:05.969Z,2.00
2023-10-30T06:53:33.771Z,2.00
2023-10-30T06:56:02.206Z,2.70
2023-10-30T06:58:29.898Z,2.60
2023-10-30T07:01:04.934Z,2.30
2023-10-30T07:03:37.342Z,2.60
2023-10-30T07:06:05.817Z,2.40
2023-10-30T07:08:33.380Z,2.50
2023-10-30T07:11:01.332Z,2.50
2023-10-30T07:13:29.432Z,2.50
2023-10-30T07:15:57.481Z,2.50
2023-10-30T07:18:26.177Z,2.50
2023-10-30T07:20:54.027Z,2.90
2023-10-30T07:23:21.882Z,2.50
2023-10-30T07:25:50.170Z,2.50
2023-10-30T07:28:18.103Z,3.20
2023-10-30T07:30:45.964Z,2.60
2023-10-30T07:33:13.750Z,2.60
2023-10-30T07:35:41.539Z,2.90
2023-10-30T07:38:09.610Z,3.10
2023-10-30T07:40:37.430Z,3.10
2023-10-30T07:43:05.205Z,3.40
2023-10-30T07:45:32.989Z,2.70
2023-10-30T07:48:00.818Z,2.60
2023-10-30T07:50:29.093Z,3.00
2023-10-30T07:52:57.608Z,3.20
2023-10-30T07:55:25.385Z,3.40
2023-10-30T07:57:53.088Z,2.70
2023-10-30T08:00:21.168Z,3.30
2023-10-30T08:02:50.315Z,3.20
2023-10-30T08:05:18.671Z,3.50
2023-10-30T08:07:46.849Z,3.30
2023-10-30T08:10:15.288Z,3.40
2023-10-30T08:12:43.166Z,2.90
2023-10-30T08:15:11.838Z,3.50
2023-10-30T08:17:39.707Z,3.60
2023-10-30T08:20:08.264Z,3.60
2023-10-30T08:22:35.936Z,3.60
2023-10-30T08:25:04.283Z,3.40
2023-10-30T08:27:32.999Z,3.10
2023-10-30T08:30:01.889Z,3.10
2023-10-30T08:32:29.860Z,3.00
2023-10-30T08:34:58.078Z,2.70
2023-10-30T08:37:25.760Z,2.80
2023-10-30T08:39:53.675Z,3.10
2023-10-30T08:42:21.504Z,3.30
2023-10-30T08:44:49.757Z,3.10
2023-10-30T08:47:19.649Z,3.50
2023-10-30T08:49:48.545Z,3.30
2023-10-30T08:52:16.476Z,2.80
2023-10-30T08:54:44.305Z,2.60
2023-10-30T08:57:17.819Z,2.80
2023-10-30T08:59:46.745Z,2.80
2023-10-30T09:02:15.089Z,2.70
2023-10-30T09:04:43.450Z,3.50
2023-10-30T09:07:11.697Z,2.80
2023-10-30T09:09:39.659Z,2.70
2023-10-30T09:12:07.839Z,2.50
2023-10-30T09:14:35.838Z,2.30
2023-10-30T09:17:03.611Z,2.40
2023-10-30T09:19:31.649Z,2.30
2023-10-30T09:21:59.597Z,2.80
2023-10-30T09:24:27.924Z,2.60
2023-10-30T09:26:55.952Z,2.70
2023-10-30T09:29:25.533Z,2.50
2023-10-30T09:31:53.565Z,2.60
2023-10-30T09:34:22.717Z,2.50
2023-10-30T09:36:51.364Z,3.00
2023-10-30T09:39:19.131Z,2.40
2023-10-30T09:41:47.957Z,3.00
2023-10-30T09:44:16.724Z,3.30
2023-10-30T09:46:46.224Z,3.40
2023-10-30T09:49:16.234Z,2.70
2023-10-30T09:51:46.978Z,3.10
2023-10-30T09:54:15.868Z,2.30
2023-10-30T09:56:45.989Z,2.50
2023-10-30T09:59:17.554Z,2.70
2023-10-30T10:01:45.855Z,2.80
2023-10-30T10:04:13.891Z,2.30
2023-10-30T10:06:43.488Z,2.90
2023-10-30T10:09:11.423Z,2.40
2023-10-30T10:11:39.579Z,2.00
2023-10-30T10:14:08.051Z,2.20
2023-10-30T10:16:37.006Z,2.50
2023-10-30T10:19:21.114Z,2.30
2023-10-30T10:21:51.218Z,2.50
2023-10-30T10:24:30.147Z,2.60
2023-10-30T10:27:03.601Z,3.90
2023-10-30T10:29:35.017Z,4.30
2023-10-30T10:32:03.199Z,4.10
2023-10-30T10:34:34.904Z,4.20
2023-10-30T10:37:03.933Z,4.70
2023-10-30T10:39:52.503Z,5.00
2023-10-30T10:42:22.128Z,4.80
2023-10-30T10:44:52.720Z,4.30
2023-10-30T10:47:22.399Z,5.10
2023-10-30T10:49:51.778Z,5.30
2023-10-30T10:52:23.380Z,5.20
2023-10-30T10:55:04.593Z,5.50
2023-10-30T10:57:41.070Z,4.70
2023-10-30T11:00:12.587Z,6.50
2023-10-30T11:02:41.301Z,6.30
2023-10-30T11:05:10.536Z,6.10
2023-10-30T11:07:48.007Z,6.10
2023-10-30T11:10:31.241Z,6.70
2023-10-30T11:13:35.239Z,6.40
2023-10-30T11:16:19.242Z,6.40
2023-10-30T11:18:47.406Z,6.70
2023-10-30T11:21:19.048Z,6.50
2023-10-30T11:24:00.696Z,7.20
2023-10-30T11:26:45.134Z,6.60
2023-10-30T11:29:18.656Z,6.80
2023-10-30T11:32:05.105Z,6.20
2023-10-30T11:34:36.034Z,6.90
2023-10-30T11:37:12.279Z,6.90
2023-10-30T11:39:41.687Z,6.80
2023-10-30T11:42:25.858Z,6.90
2023-10-30T11:45:18.602Z,6.90
2023-10-30T11:47:49.349Z,6.50
2023-10-30T11:50:22.278Z,7.00
2023-10-30T11:55:21.006Z,6.10
2023-10-30T11:57:49.472Z,7.20
2023-10-30T12:00:18.197Z,6.00
2023-10-30T12:02:48.169Z,4.90
2023-10-30T12:05:16.284Z,5.70
2023-10-30T12:07:44.118Z,4.90
2023-10-30T12:10:11.858Z,5.40
2023-10-30T12:12:41.288Z,5.50
2023-10-30T12:15:10.583Z,5.80
2023-10-30T12:17:41.044Z,6.10
2023-10-30T12:20:10.516Z,7.00
2023-10-30T12:22:43.200Z,5.90
2023-10-30T12:25:18.230Z,5.90
2023-10-30T12:27:46.285Z,6.00
2023-10-30T12:30:15.778Z,6.00
2023-10-30T12:32:53.306Z,5.90
2023-10-30T12:35:21.261Z,5.90
2023-10-30T12:37:49.246Z,5.80
2023-10-30T12:40:17.244Z,6.40
2023-10-30T12:42:47.592Z,5.30
2023-10-30T12:45:18.826Z,6.00
2023-10-30T12:47:51.823Z,5.50
2023-10-30T12:50:20.096Z,5.90
2023-10-30T12:52:48.397Z,6.00
2023-10-30T12:55:16.195Z,5.40
2023-10-30T12:57:45.106Z,4.90
2023-10-30T13:00:13.545Z,5.30
2023-10-30T13:02:41.609Z,5.90
2023-10-30T13:05:09.601Z,5.70
2023-10-30T13:07:37.636Z,5.80
2023-10-30T13:10:05.928Z,6.20
2023-10-30T13:12:34.062Z,5.30
2023-10-30T13:15:03.268Z,5.00
2023-10-30T13:17:31.227Z,5.30
2023-10-30T13:19:59.223Z,5.40
2023-10-30T13:22:26.887Z,5.80
2023-10-30T13:24:55.050Z,6.00
2023-10-30T13:27:23.925Z,5.40
2023-10-30T13:29:51.987Z,6.10
2023-10-30T13:32:20.276Z,5.90
2023-10-30T13:34:49.071Z,6.10
2023-10-30T13:37:17.015Z,6.40
2023-10-30T13:39:44.765Z,7.20
2023-10-30T13:42:12.433Z,6.30
2023-10-30T13:44:40.341Z,5.90
2023-10-30T13:47:08.374Z,6.50
2023-10-30T13:49:36.679Z,6.80
2023-10-30T13:52:04.600Z,6.30
2023-10-30T13:54:33.496Z,6.50
2023-10-30T13:57:01.508Z,5.90
2023-10-30T13:59:29.690Z,7.00
2023-10-30T14:01:58.295Z,6.50
2023-10-30T14:04:26.136Z,5.00
2023-10-30T14:06:54.233Z,7.00
2023-10-30T14:09:22.159Z,6.80
2023-10-30T14:11:52.388Z,7.40
2023-10-30T14:14:20.215Z,7.70
2023-10-30T14:16:48.076Z,6.70
2023-10-30T14:19:16.164Z,6.60
2023-10-30T14:21:45.274Z,7.10
2023-10-30T14:24:13.099Z,6.40
2023-10-30T14:26:40.996Z,6.90
2023-10-30T14:29:08.833Z,6.90
2023-10-30T14:31:36.468Z,7.10
2023-10-30T14:34:04.318Z,7.20
2023-10-30T14:36:32.136Z,6.60
2023-10-30T14:38:59.786Z,6.60
2023-10-30T14:41:29.825Z,6.90
2023-10-30T14:43:57.506Z,7.00
2023-10-30T14:46:25.573Z,6.90
2023-10-30T14:48:54.515Z,7.00
2023-10-30T14:51:22.152Z,7.40
2023-10-30T14:53:50.317Z,6.30
2023-10-30T14:56:18.864Z,5.80
2023-10-30T14:58:47.194Z,6.70
2023-10-30T15:01:15.371Z,4.90
2023-10-30T15:03:43.441Z,7.30
2023-10-30T15:06:11.245Z,7.40
2023-10-30T15:08:40.224Z,8.10
2023-10-30T15:11:08.223Z,8.10
2023-10-30T15:13:36.442Z,7.80
2023-10-30T15:16:05.419Z,8.10
2023-10-30T15:18:33.685Z,7.30
2023-10-30T15:21:01.476Z,7.60
2023-10-30T15:23:32.227Z,6.60
2023-10-30T15:26:00.414Z,7.40
2023-10-30T15:28:28.273Z,8.00
2023-10-30T15:30:57.385Z,8.00
2023-10-30T15:33:29.047Z,8.40
2023-10-30T15:35:56.745Z,7.90
2023-10-30T15:38:27.219Z,7.20
2023-10-30T15:40:55.478Z,8.80
2023-10-30T15:43:23.598Z,8.50
2023-10-30T15:45:51.505Z,8.60
2023-10-30T15:48:19.585Z,7.30
2023-10-30T15:50:47.882Z,8.10
2023-10-30T16:00:52.757Z,8.00
2023-10-30T16:11:10.190Z,9.40
2023-10-30T16:13:41.562Z,8.70
2023-10-30T16:16:09.932Z,9.80
2023-10-30T16:18:56.522Z,9.50
2023-10-30T16:21:27.115Z,8.50
2023-10-30T16:23:55.605Z,9.50
2023-10-30T16:26:23.585Z,8.10
2023-10-30T16:28:51.344Z,9.10
2023-10-30T16:31:19.294Z,9.50
2023-10-30T16:33:46.931Z,9.40
2023-10-30T16:36:14.722Z,9.50
2023-10-30T16:38:42.451Z,8.50
2023-10-30T16:41:10.804Z,8.90
2023-10-30T16:43:38.725Z,8.60
2023-10-30T16:46:07.104Z,10.10
2023-10-30T16:48:35.094Z,8.90
2023-10-30T16:51:02.925Z,8.80
2023-10-30T16:53:30.717Z,8.80
2023-10-30T16:55:58.829Z,9.50
2023-10-30T16:58:26.725Z,10.10
2023-10-30T17:00:54.567Z,8.70
2023-10-30T17:03:22.774Z,8.90
2023-10-30T17:05:51.447Z,8.80
2023-10-30T17:08:19.198Z,10.10
2023-10-30T17:10:48.652Z,9.20
2023-10-30T17:13:16.570Z,9.70
2023-10-30T17:15:44.763Z,9.50
2023-10-30T17:18:13.345Z,9.80
2023-10-30T17:20:41.358Z,10.00
2023-10-30T17:23:09.167Z,9.60
2023-10-30T17:25:38.814Z,9.80
2023-10-30T17:28:06.882Z,10.30
2023-10-30T17:30:34.639Z,10.40
2023-10-30T17:33:02.915Z,10.30
2023-10-30T17:35:30.738Z,9.60
2023-10-30T17:37:59.706Z,7.50
2023-10-30T17:40:27.502Z,10.40
2023-10-30T17:42:55.261Z,10.60
2023-10-30T17:45:22.913Z,9.30
2023-10-30T17:47:50.734Z,10.30
2023-10-30T17:50:19.897Z,9.70
2023-10-30T17:52:49.437Z,9.60
2023-10-30T17:55:18.057Z,9.60
2023-10-30T17:57:45.879Z,10.10
2023-10-30T18:00:14.443Z,10.50
2023-10-30T18:02:42.756Z,6.40
2023-10-30T18:05:10.801Z,5.70
2023-10-30T18:07:39.267Z,9.20
2023-10-30T18:10:07.625Z,7.70
2023-10-30T18:12:35.790Z,6.50
2023-10-30T18:15:03.732Z,5.70
2023-10-30T18:17:31.380Z,9.60
2023-10-30T18:19:59.410Z,10.10
2023-10-30T18:22:27.270Z,10.30
2023-10-30T18:24:55.411Z,9.20
2023-10-30T18:27:23.081Z,9.00
2023-10-30T18:29:51.681Z,8.70
2023-10-30T18:32:20.063Z,9.00
2023-10-30T18:34:47.874Z,8.60
2023-10-30T18:37:15.646Z,8.20
2023-10-30T18:39:43.517Z,8.80
2023-10-30T18:42:11.229Z,8.70
2023-10-30T18:44:39.220Z,8.30
2023-10-30T18:47:07.103Z,8.50
2023-10-30T18:49:37.153Z,8.00
2023-10-30T18:52:06.043Z,9.00
2023-10-30T18:54:33.844Z,9.40
2023-10-30T18:57:01.626Z,9.50
2023-10-30T18:59:30.383Z,8.70
2023-10-30T19:02:00.033Z,8.90
2023-10-30T19:04:28.945Z,7.90
2023-10-30T19:06:57.088Z,7.50
2023-10-30T19:09:24.893Z,8.20
2023-10-30T19:11:59.026Z,7.10
2023-10-30T19:14:27.819Z,7.80
2023-10-30T19:16:56.540Z,7.90
2023-10-30T19:19:24.473Z,7.70
2023-10-30T19:21:52.230Z,7.90
2023-10-30T19:24:20.386Z,7.90
2023-10-30T19:26:48.345Z,7.70
2023-10-30T19:29:16.386Z,8.40
2023-10-30T19:31:44.198Z,6.90
2023-10-30T19:34:12.966Z,7.60
2023-10-30T19:36:42.096Z,7.30
2023-10-30T19:39:10.913Z,7.20
2023-10-30T19:41:38.835Z,8.10
2023-10-30T19:44:07.049Z,6.90
2023-10-30T19:46:39.088Z,7.50
2023-10-30T19:49:09.613Z,7.50
2023-10-30T19:51:46.491Z,7.90
2023-10-30T19:54:19.883Z,7.60
2023-10-30T19:56:47.756Z,7.20
2023-10-30T19:59:16.589Z,7.80
2023-10-30T20:01:45.015Z,8.20
2023-10-30T20:04:12.596Z,8.00
2023-10-30T20:06:40.633Z,7.70
2023-10-30T20:09:09.200Z,7.60
2023-10-30T20:11:37.115Z,7.10
2023-10-30T20:14:05.217Z,7.40
2023-10-30T20:16:33.860Z,7.50
2023-10-30T20:19:01.627Z,7.00
2023-10-30T20:21:30.074Z,7.30
2023-10-30T20:23:57.865Z,6.70
2023-10-30T20:26:25.808Z,7.00
2023-10-30T20:28:54.410Z,6.50
2023-10-30T20:31:25.085Z,6.40
2023-10-30T20:33:53.399Z,5.80
2023-10-30T20:36:21.409Z,7.00
2023-10-30T20:38:50.043Z,5.20
2023-10-30T20:41:20.997Z,7.00
2023-10-30T20:43:49.386Z,5.60
2023-10-30T20:46:17.271Z,7.10
2023-10-30T20:48:44.880Z,6.90
2023-10-30T20:51:20.020Z,6.40
2023-10-30T20:53:48.379Z,6.40
2023-10-30T20:56:17.525Z,6.20
2023-10-30T20:58:45.232Z,6.80
2023-10-30T21:01:13.984Z,5.30
2023-10-30T21:03:41.961Z,5.20
2023-10-30T21:06:09.873Z,4.60
2023-10-30T21:08:41.467Z,5.50
2023-10-30T21:11:09.741Z,5.40
2023-10-30T21:13:37.983Z,5.10
2023-10-30T21:16:08.097Z,5.00
2023-10-30T21:18:36.737Z,4.50
2023-10-30T21:21:04.858Z,4.50
2023-10-30T21:23:32.501Z,5.10
2023-10-30T21:26:00.708Z,3.90
2023-10-30T21:28:29.075Z,5.30
2023-10-30T21:30:56.938Z,4.00
2023-10-30T21:33:25.176Z,3.90
2023-10-30T21:35:53.100Z,5.00
2023-10-30T21:38:20.804Z,3.50
2023-10-30T21:40:50.265Z,3.00
2023-10-30T21:43:17.967Z,3.40
2023-10-30T21:45:46.852Z,3.10
2023-10-30T21:48:14.665Z,3.20
2023-10-30T21:50:42.979Z,4.00
2023-10-30T21:53:11.320Z,4.90
2023-10-30T21:55:39.604Z,5.00
2023-10-30T21:58:07.871Z,5.20
2023-10-30T22:00:38.213Z,4.30
2023-10-30T22:03:07.142Z,5.00
2023-10-30T22:05:34.958Z,4.80
2023-10-30T22:08:03.554Z,4.00
2023-10-30T22:10:31.381Z,4.90
2023-10-30T22:13:00.207Z,3.70
2023-10-30T22:15:28.179Z,4.50
2023-10-30T22:17:55.855Z,4.10
2023-10-30T22:20:28.523Z,4.20
2023-10-30T22:22:56.882Z,3.90
2023-10-30T22:25:25.219Z,3.80
2023-10-30T22:27:53.493Z,3.10
2023-10-30T22:30:22.239Z,3.30
2023-10-30T22:32:50.871Z,3.60
2023-10-30T22:35:19.192Z,3.60
2023-10-30T22:37:47.356Z,3.40
2023-10-30T22:40:15.794Z,3.20
2023-10-30T22:42:43.690Z,3.30
2023-10-30T22:45:11.425Z,3.50
2023-10-30T22:47:39.327Z,2.80
2023-10-30T22:50:08.127Z,3.60
2023-10-30T22:52:35.954Z,3.60
2023-10-30T22:55:04.360Z,3.20
2023-10-30T22:57:32.133Z,3.00
2023-10-30T22:59:59.838Z,2.90
2023-10-30T23:02:28.407Z,3.30
2023-10-30T23:04:56.263Z,3.20
2023-10-30T23:07:24.700Z,3.00
2023-10-30T23:09:52.663Z,3.70
2023-10-30T23:12:21.023Z,3.20
2023-10-30T23:14:49.265Z,3.40
2023-10-30T23:17:17.939Z,3.00
2023-10-30T23:19:46.190Z,3.10
2023-10-30T23:22:13.961Z,3.30
2023-10-30T23:24:42.585Z,3.30
2023-10-30T23:27:10.700Z,4.20
2023-10-30T23:29:38.630Z,2.70
2023-10-30T23:32:06.612Z,3.30
2023-10-30T23:34:36.219Z,3.00
2023-10-30T23:37:04.989Z,2.10
2023-10-30T23:39:33.602Z,3.00
2023-10-30T23:42:01.377Z,3.40
2023-10-30T23:44:30.234Z,2.60
2023-10-30T23:46:58.708Z,2.50
2023-10-30T23:49:26.412Z,2.60
2023-10-30T23:51:55.209Z,2.80
2023-10-30T23:54:27.652Z,3.20
2023-10-30T23:56:59.770Z,3.30
2023-10-30T23:59:27.992Z,4.20
